LGPZ/PVK METAR and TAF weather

Enter ICAO airport designator
Station Type Date Time Source
LGPZ METAR 2019/10/15 20:50 UTC NOAA

LGPZ 152050Z 27006KT 9999 FEW018 21/19 Q1017


Station Type Date Time Source
LGPZ Decoded METAR 2019/10/15 20:50 UTC NOAA

Aktion Airport , Greece (LGPZ) 38-37N 020-46E 4M
Oct 15, 2019 - 04:50 PM EDT / 2019.10.15 2050 UTC
Wind: from the W (270 degrees) at 7 MPH (6 KT):0
Visibility: greater than 7 mile(s):0
Sky conditions: mostly clear
Temperature: 69 F (21 C)
Dew Point: 66 F (19 C)
Relative Humidity: 88%
Pressure (altimeter): 30.03 in. Hg (1017 hPa)
ob: LGPZ 152050Z 27006KT 9999 FEW018 21/19 Q1017
cycle: 21

Station Type Date Time Source
LGPZ TAF 2019/10/15 18:16 UTC NOAA

TAF LGPZ 151700Z 1518/1618 27010KT 9999 FEW018
BECMG 1518/1520 VRB05KT PROB30 1521/1605 3000 BR SCT006
BECMG 1609/1611 27010KT

Example: see airport list